Time;durP1;ratioP1;P1;durP2;ratioP2;P2;SDS_P1;SDS_P2;PMS_P1;PMS_P2;Temp;Humidity;BMP_temperature;BMP_pressure;BME280_temperature;BME280_humidity;BME280_pressure;Samples;Min_cycle;Max_cycle;Signal;HPM_P1;HPM_P2
2021/12/28 00:00:33;;;;;;;18.83;3.07;;;5.70;99.90;;;;;;2086633;28;20706;-67
2021/12/28 00:01:34;;;;;;;11.33;2.37;;;5.70;99.90;;;;;;2082323;28;20585;-66
2021/12/28 00:02:35;;;;;;;10.53;2.37;;;5.80;99.90;;;;;;2081128;28;20181;-70
2021/12/28 00:03:38;;;;;;;9.37;2.27;;;5.80;99.90;;;;;;2080655;28;20177;-69
2021/12/28 00:04:39;;;;;;;9.95;2.45;;;5.80;99.90;;;;;;2076624;28;20235;-65
2021/12/28 00:05:39;;;;;;;11.00;2.50;;;5.80;99.90;;;;;;2080416;28;20216;-68
2021/12/28 00:06:40;;;;;;;10.97;2.03;;;5.80;99.90;;;;;;2080584;28;20614;-67
2021/12/28 00:07:41;;;;;;;12.57;2.77;;;5.80;99.90;;;;;;2080629;28;20185;-67
2021/12/28 00:08:42;;;;;;;9.77;2.20;;;5.80;99.90;;;;;;2087279;28;20191;-66
2021/12/28 00:09:42;;;;;;;6.97;1.73;;;5.80;99.90;;;;;;2081158;28;20192;-69
2021/12/28 00:10:43;;;;;;;10.27;2.33;;;5.80;99.90;;;;;;2081138;28;20193;-68
2021/12/28 00:11:44;;;;;;;13.63;2.20;;;5.80;99.90;;;;;;2080713;28;20184;-67
2021/12/28 00:12:45;;;;;;;5.00;1.63;;;5.80;99.90;;;;;;2088212;28;20196;-68
2021/12/28 00:13:46;;;;;;;11.27;2.25;;;5.80;99.90;;;;;;2072246;28;20192;-69
2021/12/28 00:15:05;;;;;;;8.63;1.90;;;5.80;99.90;;;;;;2064101;28;20293;-71
2021/12/28 00:18:46;;;;;;;9.35;2.10;;;5.70;99.90;;;;;;2071877;28;20217;-67
2021/12/28 00:19:47;;;;;;;5.97;1.70;;;5.70;99.90;;;;;;2071802;28;20185;-66
2021/12/28 00:20:52;;;;;;;14.33;2.03;;;5.70;99.90;;;;;;2078844;28;20858;-67
2021/12/28 00:21:53;;;;;;;11.20;2.58;;;5.80;99.90;;;;;;2071721;28;20189;-67
2021/12/28 00:22:54;;;;;;;7.20;1.80;;;5.70;99.90;;;;;;2071935;28;20284;-68
2021/12/28 00:23:55;;;;;;;6.50;2.00;;;5.70;99.90;;;;;;2071920;28;20196;-68
2021/12/28 00:24:55;;;;;;;11.50;2.00;;;5.70;99.90;;;;;;2086968;28;20287;-67
2021/12/28 00:25:57;;;;;;;10.07;1.67;;;5.80;99.90;;;;;;2080974;28;20535;-67
2021/12/28 00:26:58;;;;;;;6.00;1.70;;;5.70;99.90;;;;;;2081116;28;20552;-67
2021/12/28 00:27:59;;;;;;;6.87;1.40;;;5.70;99.90;;;;;;2081721;28;20193;-67
2021/12/28 00:29:00;;;;;;;6.03;1.40;;;5.70;99.90;;;;;;2087410;28;20176;-67
2021/12/28 00:30:01;;;;;;;11.53;3.40;;;5.80;99.90;;;;;;2080969;28;20203;-66
2021/12/28 00:31:02;;;;;;;6.07;1.23;;;5.80;99.90;;;;;;2080394;28;20193;-67
2021/12/28 00:32:03;;;;;;;6.80;1.50;;;5.70;99.90;;;;;;2073484;28;20185;-67
2021/12/28 00:33:06;;;;;;;8.20;1.85;;;5.70;99.90;;;;;;2086049;28;20197;-67
2021/12/28 00:34:06;;;;;;;7.25;1.70;;;5.70;99.90;;;;;;2081049;28;20185;-67
2021/12/28 00:35:08;;;;;;;4.27;1.20;;;5.70;99.90;;;;;;2081130;28;20266;-66
2021/12/28 00:36:09;;;;;;;9.57;1.90;;;5.70;99.90;;;;;;2082283;28;20230;-72
2021/12/28 00:37:09;;;;;;;11.60;2.50;;;5.70;99.90;;;;;;2077040;28;20220;-70
2021/12/28 00:38:16;;;;;;;5.43;1.57;;;5.70;99.90;;;;;;2080355;28;20680;-67
2021/12/28 00:39:17;;;;;;;14.30;1.88;;;5.70;99.90;;;;;;2080736;28;20181;-67
2021/12/28 00:40:19;;;;;;;6.17;1.60;;;5.70;99.90;;;;;;2084149;28;20573;-67
2021/12/28 00:41:20;;;;;;;6.70;1.33;;;5.60;99.90;;;;;;2084306;28;20184;-66
2021/12/28 00:42:21;;;;;;;7.65;1.50;;;5.60;99.90;;;;;;2080843;28;20717;-66
2021/12/28 00:43:22;;;;;;;10.53;1.70;;;5.60;99.90;;;;;;2081003;28;20260;-66
2021/12/28 00:44:23;;;;;;;10.38;1.52;;;5.60;99.90;;;;;;2084964;28;20265;-67
2021/12/28 00:45:24;;;;;;;8.47;1.53;;;5.50;99.90;;;;;;2083666;28;20181;-66
2021/12/28 00:46:24;;;;;;;7.67;1.57;;;5.50;99.90;;;;;;2080445;28;20717;-67
2021/12/28 00:47:25;;;;;;;8.00;1.90;;;5.40;99.90;;;;;;2080404;28;20181;-72
2021/12/28 00:48:26;;;;;;;9.00;1.93;;;5.40;99.90;;;;;;2085542;28;20551;-65
2021/12/28 00:49:27;;;;;;;8.15;1.83;;;5.30;99.90;;;;;;2082821;28;20207;-66
2021/12/28 00:50:29;;;;;;;7.50;1.50;;;5.30;99.90;;;;;;2080237;28;20247;-66
2021/12/28 00:51:29;;;;;;;7.05;2.00;;;5.20;99.90;;;;;;2080734;28;20187;-67
2021/12/28 00:52:30;;;;;;;15.37;2.53;;;5.10;99.90;;;;;;2084951;28;20702;-71
2021/12/28 00:53:31;;;;;;;16.20;2.43;;;5.10;99.90;;;;;;2080244;28;20223;-70
2021/12/28 00:54:32;;;;;;;9.98;1.83;;;5.00;99.90;;;;;;2085422;28;20278;-69
2021/12/28 00:55:33;;;;;;;7.37;1.50;;;4.90;99.90;;;;;;2081941;28;20632;-70
2021/12/28 00:56:33;;;;;;;7.13;1.63;;;4.80;99.90;;;;;;2080457;28;20185;-70
2021/12/28 00:57:34;;;;;;;8.03;1.87;;;4.80;99.90;;;;;;2080845;28;20577;-67
2021/12/28 00:58:37;;;;;;;7.07;1.50;;;4.70;99.90;;;;;;2086480;28;20344;-67
2021/12/28 00:59:38;;;;;;;15.82;2.10;;;4.60;99.90;;;;;;2081810;28;20192;-67
2021/12/28 01:00:39;;;;;;;8.90;2.10;;;4.50;99.90;;;;;;2080785;28;20209;-67
2021/12/28 01:01:40;;;;;;;11.27;1.98;;;4.50;99.90;;;;;;2080749;28;20181;-68
2021/12/28 01:02:41;;;;;;;10.23;2.50;;;4.40;99.90;;;;;;2087353;28;20188;-69
2021/12/28 01:03:41;;;;;;;7.00;1.97;;;4.40;99.90;;;;;;2080698;28;20184;-69
2021/12/28 01:04:42;;;;;;;10.77;3.00;;;4.40;99.90;;;;;;2072101;28;20213;-68
2021/12/28 01:05:44;;;;;;;7.00;1.80;;;4.30;99.90;;;;;;2080118;28;20212;-68
2021/12/28 01:06:45;;;;;;;6.72;1.73;;;4.30;99.90;;;;;;2087793;28;20198;-68
2021/12/28 01:07:45;;;;;;;13.00;2.33;;;4.20;99.90;;;;;;2080814;28;20173;-68
2021/12/28 01:08:46;;;;;;;6.80;2.47;;;4.20;99.90;;;;;;2080325;28;20239;-68
2021/12/28 01:09:47;;;;;;;13.37;2.23;;;4.20;99.90;;;;;;2080206;28;20219;-68
2021/12/28 01:10:52;;;;;;;12.63;1.97;;;4.20;99.90;;;;;;2088090;28;20183;-68
2021/12/28 01:11:53;;;;;;;6.80;1.90;;;4.10;99.90;;;;;;2080004;28;20680;-67
2021/12/28 01:12:55;;;;;;;7.90;2.00;;;4.10;99.90;;;;;;2071969;28;20217;-67
2021/12/28 01:13:55;;;;;;;10.65;2.25;;;4.00;99.90;;;;;;2080453;28;20191;-68
2021/12/28 01:14:56;;;;;;;18.47;2.50;;;4.00;99.90;;;;;;2086747;28;20590;-68
2021/12/28 01:15:57;;;;;;;12.50;1.87;;;3.90;99.90;;;;;;2080024;28;20188;-68
2021/12/28 01:17:01;;;;;;;6.90;2.00;;;3.90;99.90;;;;;;2080855;28;20192;-70
2021/12/28 01:18:02;;;;;;;8.60;2.22;;;3.90;99.90;;;;;;2080772;28;20799;-71
2021/12/28 01:19:03;;;;;;;8.48;1.77;;;3.80;99.90;;;;;;2080447;28;20195;-71
2021/12/28 01:20:06;;;;;;;10.45;2.38;;;3.80;99.90;;;;;;2071755;28;20202;-69
2021/12/28 01:21:08;;;;;;;13.20;2.53;;;3.80;99.90;;;;;;2079825;28;20185;-70
2021/12/28 01:22:09;;;;;;;4.70;2.15;;;3.80;99.90;;;;;;2078873;28;20534;-69
2021/12/28 01:23:10;;;;;;;10.33;2.10;;;3.80;99.90;;;;;;2074789;28;20189;-69
2021/12/28 01:24:11;;;;;;;10.38;1.90;;;3.90;99.90;;;;;;2071121;28;20200;-69
2021/12/28 01:25:14;;;;;;;10.03;2.40;;;3.90;99.90;;;;;;2080169;28;20192;-69
2021/12/28 01:26:15;;;;;;;6.47;1.80;;;3.90;99.90;;;;;;2080545;28;20181;-69
2021/12/28 01:27:15;;;;;;;6.60;2.20;;;3.90;99.90;;;;;;2072321;28;20569;-69
2021/12/28 01:28:16;;;;;;;6.80;2.27;;;4.00;99.90;;;;;;2072447;28;20751;-69
2021/12/28 01:29:17;;;;;;;8.47;2.80;;;4.00;99.90;;;;;;2081225;28;20204;-68
2021/12/28 01:30:25;;;;;;;9.53;2.90;;;4.00;99.90;;;;;;2080497;28;20213;-68
2021/12/28 01:31:26;;;;;;;9.40;2.30;;;4.00;99.90;;;;;;2078578;28;20193;-69
2021/12/28 01:32:26;;;;;;;13.97;3.23;;;4.00;99.90;;;;;;2080346;28;20181;-68
2021/12/28 01:33:27;;;;;;;8.40;2.70;;;4.00;99.90;;;;;;2080649;28;20644;-68
2021/12/28 01:34:28;;;;;;;5.00;2.40;;;4.00;99.90;;;;;;2080390;28;20184;-68
2021/12/28 01:35:31;;;;;;;9.13;2.57;;;4.00;99.90;;;;;;2072445;28;20174;-68
2021/12/28 01:36:31;;;;;;;9.13;2.95;;;4.00;99.90;;;;;;2080516;28;20185;-68
2021/12/28 01:37:32;;;;;;;9.77;3.17;;;4.00;99.90;;;;;;2080547;28;20182;-69
2021/12/28 01:38:33;;;;;;;9.85;2.70;;;4.00;99.90;;;;;;2072335;28;20699;-69
2021/12/28 01:39:34;;;;;;;15.50;3.90;;;4.00;99.90;;;;;;2080587;28;20177;-68
2021/12/28 01:40:40;;;;;;;7.23;3.50;;;4.00;99.90;;;;;;2080587;28;20294;-68
2021/12/28 01:41:41;;;;;;;17.02;4.47;;;4.00;99.90;;;;;;2073155;28;20158;-68
2021/12/28 01:43:08;;;;;;;11.00;3.87;;;4.00;99.90;;;;;;2080605;28;20176;-69
2021/12/28 01:44:11;;;;;;;7.93;3.35;;;3.90;99.90;;;;;;2081271;28;20180;-68
2021/12/28 01:45:11;;;;;;;11.00;3.40;;;4.00;99.90;;;;;;2080436;28;20248;-69
2021/12/28 01:46:12;;;;;;;9.00;3.40;;;3.90;99.90;;;;;;2080584;28;20616;-69
2021/12/28 01:47:16;;;;;;;8.17;2.97;;;4.00;99.90;;;;;;2081026;28;20189;-69
2021/12/28 01:48:40;;;;;;;9.70;2.80;;;4.00;99.90;;;;;;2081209;28;20199;-69
2021/12/28 01:49:41;;;;;;;5.90;2.28;;;4.00;99.90;;;;;;2080432;28;20199;-69
2021/12/28 01:50:43;;;;;;;8.87;3.17;;;4.00;99.90;;;;;;2072446;28;20675;-69
2021/12/28 01:51:44;;;;;;;11.70;2.53;;;4.10;99.90;;;;;;2081280;28;20191;-69
2021/12/28 01:52:44;;;;;;;9.27;2.40;;;4.10;99.90;;;;;;2082775;28;20208;-69
2021/12/28 01:53:49;;;;;;;9.37;2.00;;;4.20;99.90;;;;;;2082091;28;20192;-69
2021/12/28 01:54:50;;;;;;;4.30;1.75;;;4.20;99.90;;;;;;2074483;28;20193;-69
2021/12/28 01:55:55;;;;;;;3.97;1.70;;;4.30;99.90;;;;;;2082179;28;20185;-69
2021/12/28 01:56:56;;;;;;;5.40;1.83;;;4.40;99.90;;;;;;2082665;28;20177;-69
2021/12/28 01:57:56;;;;;;;6.70;1.33;;;4.50;99.90;;;;;;2082529;28;20192;-69
2021/12/28 01:58:58;;;;;;;4.88;1.30;;;4.50;99.90;;;;;;2080208;28;20629;-69
2021/12/28 01:59:59;;;;;;;7.55;1.42;;;4.60;99.90;;;;;;2073797;28;20292;-69
2021/12/28 02:01:00;;;;;;;6.27;1.07;;;4.60;99.90;;;;;;2073153;28;20190;-69
2021/12/28 02:02:01;;;;;;;5.72;1.40;;;4.70;99.90;;;;;;2079463;28;20197;-69
2021/12/28 02:03:11;;;;;;;3.03;1.30;;;4.70;99.90;;;;;;2082525;28;20177;-70
2021/12/28 02:04:13;;;;;;;8.93;1.52;;;4.70;99.90;;;;;;2081954;28;20181;-69
2021/12/28 02:05:14;;;;;;;7.28;1.40;;;4.80;99.90;;;;;;2081914;28;20188;-69
2021/12/28 02:06:16;;;;;;;4.77;1.60;;;4.80;99.90;;;;;;2082321;28;20254;-69
2021/12/28 02:07:16;;;;;;;10.75;1.35;;;4.80;99.90;;;;;;2079891;28;20173;-73
2021/12/28 02:08:19;;;;;;;4.13;1.40;;;4.90;99.90;;;;;;2082563;28;20184;-73
2021/12/28 02:09:21;;;;;;;4.82;1.20;;;4.90;99.90;;;;;;2082751;28;20173;-69
2021/12/28 02:10:22;;;;;;;2.22;0.88;;;5.00;99.90;;;;;;2082587;28;20698;-69
2021/12/28 02:11:22;;;;;;;3.30;0.77;;;5.00;99.90;;;;;;2082627;28;20193;-69
2021/12/28 02:12:23;;;;;;;3.17;1.00;;;5.00;99.90;;;;;;2082682;28;20185;-69
2021/12/28 02:13:25;;;;;;;5.40;1.20;;;5.10;99.90;;;;;;2082469;28;20173;-69
2021/12/28 02:14:26;;;;;;;4.00;0.85;;;5.10;99.90;;;;;;2081590;28;20180;-69
2021/12/28 02:15:27;;;;;;;4.70;1.00;;;5.10;99.90;;;;;;2081935;28;20181;-69
2021/12/28 02:16:28;;;;;;;4.33;1.17;;;5.10;99.90;;;;;;2082511;28;20177;-69
2021/12/28 02:17:29;;;;;;;8.73;1.02;;;5.10;99.90;;;;;;2082530;28;20173;-69
2021/12/28 02:18:32;;;;;;;3.10;1.00;;;5.10;99.90;;;;;;2082314;28;20882;-69
2021/12/28 02:19:32;;;;;;;2.45;0.90;;;5.10;99.90;;;;;;2081974;28;20173;-69
2021/12/28 02:20:36;;;;;;;5.47;1.23;;;5.10;99.90;;;;;;2082015;28;20213;-69
2021/12/28 02:21:36;;;;;;;4.63;0.95;;;5.00;99.90;;;;;;2081968;28;20170;-69
2021/12/28 02:22:38;;;;;;;3.53;1.03;;;5.00;99.90;;;;;;2081847;28;20235;-69
2021/12/28 02:23:39;;;;;;;4.10;1.15;;;5.00;99.90;;;;;;2081908;28;20653;-69
2021/12/28 02:24:39;;;;;;;3.83;1.17;;;5.00;99.90;;;;;;2081726;28;20188;-69
2021/12/28 02:25:41;;;;;;;4.30;1.20;;;5.00;99.90;;;;;;2082491;28;20181;-69
2021/12/28 02:26:42;;;;;;;7.55;1.20;;;5.00;99.90;;;;;;2081826;28;20192;-69
2021/12/28 02:27:43;;;;;;;7.47;1.43;;;5.00;99.90;;;;;;2081904;28;20181;-69
2021/12/28 02:28:44;;;;;;;3.38;0.82;;;5.00;99.90;;;;;;2081835;28;20189;-69
2021/12/28 02:29:44;;;;;;;3.47;0.83;;;5.00;99.90;;;;;;2073536;28;20249;-69
2021/12/28 02:30:49;;;;;;;4.83;1.53;;;5.00;99.90;;;;;;2081855;28;20213;-69
2021/12/28 02:31:55;;;;;;;5.10;1.02;;;5.10;99.90;;;;;;2082520;28;20561;-68
2021/12/28 02:32:56;;;;;;;5.95;1.27;;;5.00;99.90;;;;;;2081844;28;20185;-69
2021/12/28 02:33:57;;;;;;;1.77;0.83;;;5.00;99.90;;;;;;2081910;28;20284;-69
2021/12/28 02:34:58;;;;;;;6.82;1.30;;;5.10;99.90;;;;;;2081517;28;20189;-69
2021/12/28 02:36:01;;;;;;;3.50;1.07;;;5.10;99.90;;;;;;2073627;28;20545;-69
2021/12/28 02:37:02;;;;;;;1.70;0.70;;;5.10;99.90;;;;;;2081754;28;20552;-69
2021/12/28 02:38:06;;;;;;;1.40;0.70;;;5.10;99.90;;;;;;2082406;28;20272;-69
2021/12/28 02:39:06;;;;;;;3.33;0.70;;;5.10;99.90;;;;;;2082412;28;20183;-69
2021/12/28 02:40:11;;;;;;;6.03;1.00;;;5.10;99.90;;;;;;2082318;28;20212;-69
2021/12/28 02:41:12;;;;;;;5.13;1.20;;;5.10;99.90;;;;;;2082295;28;20188;-69
2021/12/28 02:42:18;;;;;;;3.45;1.10;;;5.10;99.90;;;;;;2081836;28;20220;-69
2021/12/28 02:43:19;;;;;;;4.07;1.05;;;5.10;99.90;;;;;;2081821;28;20154;-69
2021/12/28 02:44:19;;;;;;;2.60;1.10;;;5.10;99.90;;;;;;2081830;28;20173;-69
2021/12/28 02:45:25;;;;;;;2.33;0.90;;;5.10;99.90;;;;;;2081549;28;20165;-69
2021/12/28 02:46:26;;;;;;;4.80;0.93;;;5.10;99.90;;;;;;2082500;28;20228;-69
2021/12/28 02:47:27;;;;;;;3.63;0.90;;;5.20;99.90;;;;;;2082207;28;20181;-69
2021/12/28 02:48:28;;;;;;;2.43;0.70;;;5.20;99.90;;;;;;2081831;28;20281;-69
2021/12/28 02:49:28;;;;;;;2.67;0.90;;;5.20;99.90;;;;;;2081656;28;20181;-69
2021/12/28 02:50:33;;;;;;;6.17;1.37;;;5.20;99.90;;;;;;2082230;28;20220;-69
2021/12/28 02:51:34;;;;;;;2.67;1.10;;;5.20;99.90;;;;;;2082361;28;20173;-70
2021/12/28 02:52:37;;;;;;;4.97;1.77;;;5.20;99.90;;;;;;2082300;28;20628;-69
2021/12/28 02:53:38;;;;;;;3.47;0.80;;;5.20;99.90;;;;;;2081634;28;20284;-69
2021/12/28 02:54:39;;;;;;;2.45;0.82;;;5.20;99.90;;;;;;2073359;28;20177;-69
2021/12/28 02:55:40;;;;;;;2.22;1.00;;;5.20;99.90;;;;;;2081631;28;20181;-69
2021/12/28 02:56:41;;;;;;;9.97;1.10;;;5.20;99.90;;;;;;2082184;28;20193;-69
2021/12/28 02:57:51;;;;;;;1.90;0.80;;;5.10;99.90;;;;;;2082308;28;20243;-69
2021/12/28 02:58:53;;;;;;;2.35;0.98;;;5.10;99.90;;;;;;2081791;28;20209;-69
2021/12/28 02:59:53;;;;;;;1.23;0.77;;;5.00;99.90;;;;;;2081616;28;20682;-69
2021/12/28 03:01:07;;;;;;;2.70;0.80;;;5.00;99.90;;;;;;2082373;28;20184;-69
2021/12/28 03:02:08;;;;;;;3.63;0.80;;;5.00;99.90;;;;;;2082077;28;20191;-69
2021/12/28 03:03:14;;;;;;;2.97;0.90;;;5.00;99.90;;;;;;2082139;28;20181;-69
2021/12/28 03:04:15;;;;;;;4.28;0.80;;;4.90;99.90;;;;;;2082208;28;20204;-69
2021/12/28 03:05:15;;;;;;;3.03;0.77;;;5.00;99.90;;;;;;2082105;28;20174;-69
2021/12/28 03:06:20;;;;;;;2.97;0.90;;;4.90;99.90;;;;;;2082169;28;20197;-69
2021/12/28 03:07:22;;;;;;;5.57;1.23;;;4.90;99.90;;;;;;2082173;28;20204;-69
2021/12/28 03:08:27;;;;;;;1.77;0.70;;;4.90;99.90;;;;;;2082187;28;20214;-69
2021/12/28 03:09:27;;;;;;;3.67;1.15;;;4.90;99.90;;;;;;2082185;28;20260;-69
2021/12/28 03:10:28;;;;;;;2.93;0.90;;;4.90;99.90;;;;;;2082154;28;20205;-69
2021/12/28 03:11:30;;;;;;;5.20;0.73;;;4.90;99.90;;;;;;2081649;28;20242;-69
2021/12/28 03:12:30;;;;;;;2.25;0.80;;;4.90;99.90;;;;;;2081454;28;20672;-69
2021/12/28 03:13:38;;;;;;;4.33;1.00;;;5.00;99.90;;;;;;2081654;28;20185;-69
2021/12/28 03:14:39;;;;;;;2.20;0.70;;;5.00;99.90;;;;;;2081498;28;20189;-69
2021/12/28 03:15:40;;;;;;;3.17;0.70;;;5.00;99.90;;;;;;2081807;28;20212;-69
2021/12/28 03:16:41;;;;;;;4.03;1.52;;;5.00;99.90;;;;;;2082160;28;20181;-69
2021/12/28 03:17:43;;;;;;;3.05;0.90;;;5.00;99.90;;;;;;2081456;28;20604;-69
2021/12/28 03:18:45;;;;;;;2.78;0.90;;;5.00;99.90;;;;;;2081480;28;20223;-69
2021/12/28 03:19:45;;;;;;;5.93;0.90;;;5.00;99.90;;;;;;2081505;28;20180;-69
2021/12/28 03:20:47;;;;;;;2.73;0.87;;;4.90;99.90;;;;;;2081711;28;20207;-69
2021/12/28 03:21:50;;;;;;;2.78;0.88;;;4.90;99.90;;;;;;2081672;28;20188;-69
2021/12/28 03:22:51;;;;;;;8.85;1.27;;;5.00;99.90;;;;;;2081418;28;20235;-69
2021/12/28 03:23:54;;;;;;;3.43;0.83;;;4.90;99.90;;;;;;2082152;28;20770;-69
2021/12/28 03:24:55;;;;;;;7.13;0.90;;;4.90;99.90;;;;;;2081252;28;20223;-69
2021/12/28 03:25:56;;;;;;;2.73;0.77;;;4.90;99.90;;;;;;2081436;28;20648;-69
2021/12/28 03:26:57;;;;;;;5.78;0.82;;;4.90;99.90;;;;;;2081306;28;20173;-69
2021/12/28 03:28:00;;;;;;;3.33;0.90;;;5.00;99.90;;;;;;2081418;28;20680;-69
2021/12/28 03:29:01;;;;;;;6.43;1.25;;;4.90;99.90;;;;;;2073404;28;20182;-69
2021/12/28 03:30:05;;;;;;;4.83;1.00;;;4.90;99.90;;;;;;2081345;28;20560;-69
2021/12/28 03:31:10;;;;;;;2.95;0.80;;;4.90;99.90;;;;;;2081920;28;20641;-70
2021/12/28 03:32:11;;;;;;;3.65;1.17;;;4.90;99.90;;;;;;2081933;28;20177;-69
2021/12/28 03:33:11;;;;;;;3.07;1.23;;;4.90;99.90;;;;;;2081795;28;20165;-69
2021/12/28 03:34:12;;;;;;;4.60;0.90;;;4.80;99.90;;;;;;2081221;28;20177;-69
2021/12/28 03:35:15;;;;;;;6.00;1.23;;;4.80;99.90;;;;;;2081180;28;20180;-69
2021/12/28 03:36:17;;;;;;;4.15;1.23;;;4.80;99.90;;;;;;2073406;28;20916;-69
2021/12/28 03:37:18;;;;;;;4.40;1.25;;;4.80;99.90;;;;;;2081226;28;20189;-69
2021/12/28 03:38:20;;;;;;;5.10;1.30;;;4.70;99.90;;;;;;2081279;28;20201;-70
2021/12/28 03:39:21;;;;;;;2.30;1.02;;;4.70;99.90;;;;;;2081216;28;20264;-69
2021/12/28 03:40:21;;;;;;;7.90;1.50;;;4.70;99.90;;;;;;2081779;28;20197;-69
2021/12/28 03:41:25;;;;;;;3.47;1.10;;;4.70;99.90;;;;;;2081282;28;20204;-69
2021/12/28 03:42:26;;;;;;;3.58;1.20;;;4.70;99.90;;;;;;2073399;28;20232;-70
2021/12/28 03:43:27;;;;;;;6.57;1.23;;;4.60;99.90;;;;;;2081268;28;20566;-69
2021/12/28 03:44:28;;;;;;;1.73;1.00;;;4.60;99.90;;;;;;2081821;28;20191;-69
2021/12/28 03:45:28;;;;;;;3.23;1.20;;;4.60;99.90;;;;;;2081778;28;20411;-69
2021/12/28 03:46:30;;;;;;;4.47;1.20;;;4.60;99.90;;;;;;2081793;28;20648;-69
2021/12/28 03:47:31;;;;;;;3.65;1.20;;;4.60;99.90;;;;;;2081210;28;20581;-68
2021/12/28 03:48:33;;;;;;;3.43;1.70;;;4.50;99.90;;;;;;2073070;28;20185;-69
2021/12/28 03:49:34;;;;;;;4.63;1.60;;;4.50;99.90;;;;;;2073122;28;21013;-69
2021/12/28 03:50:36;;;;;;;1.97;1.20;;;4.50;99.90;;;;;;2081086;28;20231;-69
2021/12/28 03:51:37;;;;;;;2.60;1.50;;;4.50;99.90;;;;;;2072951;28;20280;-69
2021/12/28 03:52:39;;;;;;;2.93;1.40;;;4.50;99.90;;;;;;2073097;28;20200;-69
2021/12/28 03:53:40;;;;;;;3.15;2.17;;;4.50;99.90;;;;;;2081099;28;20181;-69
2021/12/28 03:54:40;;;;;;;4.53;1.80;;;4.40;99.90;;;;;;2081625;28;20192;-68
2021/12/28 03:55:41;;;;;;;3.70;1.70;;;4.40;99.90;;;;;;2081733;28;20181;-69
2021/12/28 03:56:42;;;;;;;3.80;1.77;;;4.40;99.90;;;;;;2081667;28;20181;-69
2021/12/28 03:57:42;;;;;;;7.10;1.80;;;4.40;99.90;;;;;;2081772;28;20586;-69
2021/12/28 03:58:45;;;;;;;6.17;1.93;;;4.40;99.90;;;;;;2081636;28;20680;-70
2021/12/28 03:59:45;;;;;;;3.97;2.28;;;4.40;99.90;;;;;;2081081;28;20191;-69
2021/12/28 04:00:48;;;;;;;3.07;1.93;;;4.40;99.90;;;;;;2081079;28;20572;-70
2021/12/28 04:01:49;;;;;;;4.95;2.13;;;4.30;99.90;;;;;;2081134;28;20682;-70
2021/12/28 04:02:50;;;;;;;3.10;1.90;;;4.40;99.90;;;;;;2081690;28;20188;-69
2021/12/28 04:03:51;;;;;;;3.22;2.10;;;4.30;99.90;;;;;;2072875;28;20317;-69
2021/12/28 04:04:52;;;;;;;4.03;2.13;;;4.30;99.90;;;;;;2064681;28;20293;-70
2021/12/28 04:05:53;;;;;;;3.60;2.10;;;4.30;99.90;;;;;;2072779;28;20185;-69
2021/12/28 04:06:53;;;;;;;3.23;2.27;;;4.30;99.90;;;;;;2081001;28;20211;-69
2021/12/28 04:07:55;;;;;;;3.33;2.17;;;4.30;99.90;;;;;;2081688;28;20181;-69
2021/12/28 04:08:57;;;;;;;3.42;1.90;;;4.30;99.90;;;;;;2080929;28;20266;-69
2021/12/28 04:10:02;;;;;;;4.68;2.42;;;4.30;99.90;;;;;;2081054;28;20192;-69
2021/12/28 04:11:25;;;;;;;2.75;2.00;;;4.30;99.90;;;;;;2081563;28;20169;-70
2021/12/28 04:12:27;;;;;;;3.88;1.92;;;4.30;99.90;;;;;;2081108;28;20584;-69
2021/12/28 04:13:28;;;;;;;4.60;2.25;;;4.30;99.90;;;;;;2076010;28;20230;-69
2021/12/28 04:14:29;;;;;;;4.18;2.20;;;4.30;99.90;;;;;;2080257;28;20173;-69
2021/12/28 04:15:30;;;;;;;3.90;2.40;;;4.20;99.90;;;;;;2078567;28;20177;-69
2021/12/28 04:16:31;;;;;;;3.75;2.13;;;4.20;99.90;;;;;;2074075;28;20224;-69
2021/12/28 04:17:36;;;;;;;3.15;2.00;;;4.20;99.90;;;;;;2080813;28;20205;-69
2021/12/28 04:18:36;;;;;;;4.10;2.15;;;4.20;99.90;;;;;;2080961;28;20211;-69
2021/12/28 04:19:37;;;;;;;3.27;1.90;;;4.20;99.90;;;;;;2081058;28;20272;-69
2021/12/28 04:20:38;;;;;;;4.47;2.80;;;4.20;99.90;;;;;;2081563;28;20200;-69
2021/12/28 04:21:39;;;;;;;4.43;2.07;;;4.20;99.90;;;;;;2081462;28;20600;-70
2021/12/28 04:22:40;;;;;;;2.70;1.97;;;4.20;99.90;;;;;;2080917;28;20184;-69
2021/12/28 04:23:41;;;;;;;2.90;2.00;;;4.20;99.90;;;;;;2072804;28;20189;-69
2021/12/28 04:24:42;;;;;;;4.17;2.63;;;4.20;99.90;;;;;;2080854;28;20263;-69
2021/12/28 04:25:42;;;;;;;4.20;1.97;;;4.10;99.90;;;;;;2080921;28;20593;-69
2021/12/28 04:26:43;;;;;;;5.23;2.57;;;4.20;99.90;;;;;;2080874;28;20212;-69
2021/12/28 04:27:44;;;;;;;2.40;2.00;;;4.20;99.90;;;;;;2080816;28;20193;-69
2021/12/28 04:28:45;;;;;;;3.75;2.20;;;4.20;99.90;;;;;;2080931;28;20195;-69
2021/12/28 04:29:46;;;;;;;3.20;2.20;;;4.20;99.90;;;;;;2081406;28;20195;-69
2021/12/28 04:30:47;;;;;;;3.03;2.07;;;4.20;99.90;;;;;;2081515;28;20231;-69
2021/12/28 04:31:48;;;;;;;3.37;2.60;;;4.20;99.90;;;;;;2081457;28;20625;-69
2021/12/28 04:32:48;;;;;;;3.15;2.10;;;4.20;99.90;;;;;;2081292;28;20185;-68
2021/12/28 04:33:49;;;;;;;3.17;2.20;;;4.20;99.90;;;;;;2080849;28;20265;-69
2021/12/28 04:34:50;;;;;;;4.07;2.13;;;4.20;99.90;;;;;;2080803;28;20679;-69
2021/12/28 04:35:51;;;;;;;3.50;2.20;;;4.20;99.90;;;;;;2081446;28;20177;-69
2021/12/28 04:36:51;;;;;;;4.33;2.13;;;4.20;99.90;;;;;;2081358;28;20243;-69
2021/12/28 04:37:52;;;;;;;3.10;2.50;;;4.20;99.90;;;;;;2080666;28;20192;-69
2021/12/28 04:38:53;;;;;;;3.93;2.50;;;4.20;99.90;;;;;;2080873;28;20251;-69
2021/12/28 04:39:53;;;;;;;3.50;2.43;;;4.20;99.90;;;;;;2080727;28;20272;-70
2021/12/28 04:40:54;;;;;;;2.20;1.80;;;4.20;99.90;;;;;;2080902;28;20169;-69
2021/12/28 04:41:55;;;;;;;2.90;1.97;;;4.20;99.90;;;;;;2080837;28;20181;-69
2021/12/28 04:42:55;;;;;;;2.93;2.20;;;4.20;99.90;;;;;;2080850;28;20195;-69
2021/12/28 04:43:59;;;;;;;2.97;2.03;;;4.30;99.90;;;;;;2072552;28;20189;-69
2021/12/28 04:45:00;;;;;;;4.43;2.50;;;4.30;99.90;;;;;;2065287;28;20182;-69
2021/12/28 04:46:01;;;;;;;2.55;2.13;;;4.30;99.90;;;;;;2064824;28;20194;-69
2021/12/28 04:47:02;;;;;;;3.70;2.43;;;4.30;99.90;;;;;;2072594;28;20710;-69
2021/12/28 04:48:05;;;;;;;4.33;2.30;;;4.30;99.90;;;;;;2081391;28;20169;-69
2021/12/28 04:49:06;;;;;;;2.75;2.42;;;4.30;99.90;;;;;;2080744;28;20169;-69
2021/12/28 04:50:09;;;;;;;3.50;2.30;;;4.30;99.90;;;;;;2080765;28;20715;-69
2021/12/28 04:51:10;;;;;;;3.22;2.15;;;4.30;99.90;;;;;;2080840;28;20687;-69
2021/12/28 04:52:11;;;;;;;5.17;2.40;;;4.30;99.90;;;;;;2080871;28;20180;-69
2021/12/28 04:53:13;;;;;;;2.90;2.30;;;4.30;99.90;;;;;;2081357;28;20183;-69
2021/12/28 04:54:14;;;;;;;4.20;2.80;;;4.30;99.90;;;;;;2080618;28;20185;-69
2021/12/28 04:55:18;;;;;;;3.28;2.63;;;4.30;99.90;;;;;;2080630;28;20184;-69
2021/12/28 04:56:19;;;;;;;3.78;2.67;;;4.30;99.90;;;;;;2072534;28;20698;-69
2021/12/28 04:57:20;;;;;;;4.30;2.33;;;4.30;99.90;;;;;;2072478;28;20182;-69
2021/12/28 04:58:20;;;;;;;3.47;2.53;;;4.30;99.90;;;;;;2081307;28;20353;-69
2021/12/28 04:59:21;;;;;;;3.47;2.30;;;4.30;99.90;;;;;;2080743;28;20200;-69
2021/12/28 05:00:22;;;;;;;3.57;2.50;;;4.30;99.90;;;;;;2080731;28;20200;-69
2021/12/28 05:01:23;;;;;;;3.35;2.40;;;4.30;99.90;;;;;;2081347;28;20173;-69
2021/12/28 05:02:24;;;;;;;2.80;2.20;;;4.40;99.90;;;;;;2081480;28;20758;-69
2021/12/28 05:03:25;;;;;;;3.10;2.27;;;4.40;99.90;;;;;;2081263;28;20585;-68
2021/12/28 05:04:26;;;;;;;2.73;2.33;;;4.40;99.90;;;;;;2080699;28;20615;-69
2021/12/28 05:05:27;;;;;;;3.17;2.40;;;4.40;99.90;;;;;;2072314;28;20664;-70
2021/12/28 05:06:28;;;;;;;3.97;2.40;;;4.40;99.90;;;;;;2080729;28;20187;-70
2021/12/28 05:07:28;;;;;;;3.50;2.40;;;4.40;99.90;;;;;;2080505;28;20173;-68
2021/12/28 05:08:29;;;;;;;2.80;2.50;;;4.40;99.90;;;;;;2080764;28;20179;-69
2021/12/28 05:09:30;;;;;;;2.97;2.15;;;4.40;99.90;;;;;;2080709;28;20321;-68
2021/12/28 05:10:33;;;;;;;3.37;2.20;;;4.40;99.90;;;;;;2080597;28;20672;-71
2021/12/28 05:11:34;;;;;;;2.92;2.20;;;4.40;99.90;;;;;;2080630;28;20181;-70
2021/12/28 05:12:35;;;;;;;4.03;2.78;;;4.40;99.90;;;;;;2080683;28;20203;-70
2021/12/28 05:13:36;;;;;;;3.30;2.20;;;4.40;99.90;;;;;;2080677;28;20200;-68
2021/12/28 05:14:40;;;;;;;2.20;1.90;;;4.40;99.90;;;;;;2081138;28;20181;-69
2021/12/28 05:15:43;;;;;;;2.35;1.85;;;4.50;99.90;;;;;;2081127;28;20184;-70
2021/12/28 05:16:44;;;;;;;2.42;1.92;;;4.50;99.90;;;;;;2081178;28;20550;-70
2021/12/28 05:17:45;;;;;;;3.90;2.03;;;4.50;99.90;;;;;;2080520;28;20239;-70
2021/12/28 05:18:46;;;;;;;2.88;2.03;;;4.50;99.90;;;;;;2080431;28;20711;-70
2021/12/28 05:19:47;;;;;;;2.50;2.00;;;4.50;99.90;;;;;;2080505;28;20194;-70
2021/12/28 05:20:47;;;;;;;4.10;2.20;;;4.50;99.90;;;;;;2080608;28;20188;-70
2021/12/28 05:21:48;;;;;;;2.57;2.10;;;4.50;99.90;;;;;;2081182;28;20192;-70
2021/12/28 05:22:49;;;;;;;2.43;1.80;;;4.50;99.90;;;;;;2081274;28;20178;-68
2021/12/28 05:23:49;;;;;;;2.47;1.97;;;4.60;99.90;;;;;;2080600;28;20577;-70
2021/12/28 05:24:50;;;;;;;4.53;2.40;;;4.50;99.90;;;;;;2080560;28;20177;-70
2021/12/28 05:25:51;;;;;;;3.20;2.30;;;4.50;99.90;;;;;;2082131;28;20185;-70
2021/12/28 05:26:52;;;;;;;2.40;1.87;;;4.50;99.90;;;;;;2082871;28;20184;-71
2021/12/28 05:27:53;;;;;;;2.63;1.77;;;4.50;99.90;;;;;;2082913;28;20193;-70